X  Κλείσε Στοιχεία αεροπορικών μετεωρολογικών δεδομένων METAR     KDNN Dalton Municipal Airport
θερμοκρασία
48°F θερμοκρασία
28°F Σημείο δρόσου
46% Υγρασία



Ανεμος
5 MPH
8 KM/H
2 M/S
4 KTS



Ηρεμία
V
Τρέχουσες συνθήκες

Μερικώς συννεφιασμένος Μερικώς συννεφιασμένος
πίεση 1026.42 (hPa) - 30.31 (inHg)
Ορατότητα 10 (μίλι) - 16.1 (km)
Aεροδρόμιο
Κωδικός αεροδρομίου KDNN

Τοποθεσία: Dalton Municipal Airport
Απόσταση: 34 (mi)

Metar:
KDNN 051635Z AUTO VRB04KT 10SM FEW043 09/M02 A3031 RMK AO2 T00891017

ώρα: 02-05-2023 11:35 EST